sensor_id;sensor_type;location;lat;lon;timestamp;P1;durP1;ratioP1;P2;durP2;ratioP2
48189;SDS011;33980;47.436;18.926;2022-09-17T00:01:42;4.50;;;2.10;;
48189;SDS011;33980;47.436;18.926;2022-09-17T00:04:12;3.85;;;2.20;;
48189;SDS011;33980;47.436;18.926;2022-09-17T00:06:40;3.97;;;2.35;;
48189;SDS011;33980;47.436;18.926;2022-09-17T00:09:09;6.03;;;2.28;;
48189;SDS011;33980;47.436;18.926;2022-09-17T00:11:39;6.82;;;2.50;;
48189;SDS011;33980;47.436;18.926;2022-09-17T00:14:12;3.70;;;2.30;;
48189;SDS011;33980;47.436;18.926;2022-09-17T00:16:44;2.97;;;2.00;;
48189;SDS011;33980;47.436;18.926;2022-09-17T00:19:16;4.22;;;2.60;;
48189;SDS011;33980;47.436;18.926;2022-09-17T00:21:46;6.95;;;3.15;;
48189;SDS011;33980;47.436;18.926;2022-09-17T00:24:15;4.53;;;2.22;;
48189;SDS011;33980;47.436;18.926;2022-09-17T00:26:45;5.07;;;2.60;;
48189;SDS011;33980;47.436;18.926;2022-09-17T00:29:15;5.00;;;3.00;;
48189;SDS011;33980;47.436;18.926;2022-09-17T00:31:44;4.28;;;2.95;;
48189;SDS011;33980;47.436;18.926;2022-09-17T00:34:13;5.78;;;2.55;;
48189;SDS011;33980;47.436;18.926;2022-09-17T00:36:42;4.10;;;2.87;;
48189;SDS011;33980;47.436;18.926;2022-09-17T00:39:13;5.10;;;2.62;;
48189;SDS011;33980;47.436;18.926;2022-09-17T00:41:43;6.05;;;3.25;;
48189;SDS011;33980;47.436;18.926;2022-09-17T00:47:08;4.82;;;2.67;;
48189;SDS011;33980;47.436;18.926;2022-09-17T00:49:41;4.95;;;2.78;;
48189;SDS011;33980;47.436;18.926;2022-09-17T00:52:13;5.15;;;2.95;;
48189;SDS011;33980;47.436;18.926;2022-09-17T00:54:44;5.82;;;3.15;;
48189;SDS011;33980;47.436;18.926;2022-09-17T00:57:17;5.28;;;2.75;;
48189;SDS011;33980;47.436;18.926;2022-09-17T00:59:47;5.50;;;3.17;;
48189;SDS011;33980;47.436;18.926;2022-09-17T01:02:16;4.45;;;2.85;;
48189;SDS011;33980;47.436;18.926;2022-09-17T01:04:46;5.47;;;2.85;;
48189;SDS011;33980;47.436;18.926;2022-09-17T01:07:20;4.93;;;2.70;;
48189;SDS011;33980;47.436;18.926;2022-09-17T01:10:06;6.15;;;2.83;;
48189;SDS011;33980;47.436;18.926;2022-09-17T01:12:46;6.37;;;3.00;;
48189;SDS011;33980;47.436;18.926;2022-09-17T01:15:24;5.78;;;3.30;;
48189;SDS011;33980;47.436;18.926;2022-09-17T01:18:00;5.68;;;3.05;;
48189;SDS011;33980;47.436;18.926;2022-09-17T01:20:44;4.53;;;2.60;;
48189;SDS011;33980;47.436;18.926;2022-09-17T01:23:41;5.87;;;3.05;;
48189;SDS011;33980;47.436;18.926;2022-09-17T01:26:35;4.95;;;2.80;;
48189;SDS011;33980;47.436;18.926;2022-09-17T01:29:20;4.62;;;2.75;;
48189;SDS011;33980;47.436;18.926;2022-09-17T01:32:03;6.32;;;3.22;;
48189;SDS011;33980;47.436;18.926;2022-09-17T01:34:37;7.35;;;3.00;;
48189;SDS011;33980;47.436;18.926;2022-09-17T01:37:12;5.95;;;3.42;;
48189;SDS011;33980;47.436;18.926;2022-09-17T01:39:43;6.43;;;3.50;;
48189;SDS011;33980;47.436;18.926;2022-09-17T01:42:19;5.43;;;3.17;;
48189;SDS011;33980;47.436;18.926;2022-09-17T01:44:54;6.30;;;3.55;;
48189;SDS011;33980;47.436;18.926;2022-09-17T01:47:32;5.53;;;3.35;;
48189;SDS011;33980;47.436;18.926;2022-09-17T01:50:04;6.47;;;3.58;;
48189;SDS011;33980;47.436;18.926;2022-09-17T01:52:35;6.30;;;4.05;;
48189;SDS011;33980;47.436;18.926;2022-09-17T01:55:06;6.82;;;3.28;;
48189;SDS011;33980;47.436;18.926;2022-09-17T01:57:39;5.57;;;3.03;;
48189;SDS011;33980;47.436;18.926;2022-09-17T02:00:10;6.65;;;2.90;;
48189;SDS011;33980;47.436;18.926;2022-09-17T02:02:43;4.80;;;3.03;;
48189;SDS011;33980;47.436;18.926;2022-09-17T02:05:16;4.90;;;2.85;;
48189;SDS011;33980;47.436;18.926;2022-09-17T02:07:48;6.80;;;3.45;;
48189;SDS011;33980;47.436;18.926;2022-09-17T02:10:20;5.12;;;3.08;;
48189;SDS011;33980;47.436;18.926;2022-09-17T02:12:51;4.93;;;2.95;;
48189;SDS011;33980;47.436;18.926;2022-09-17T02:15:25;4.95;;;2.83;;
48189;SDS011;33980;47.436;18.926;2022-09-17T02:17:57;6.22;;;3.62;;
48189;SDS011;33980;47.436;18.926;2022-09-17T02:20:33;5.68;;;3.83;;
48189;SDS011;33980;47.436;18.926;2022-09-17T02:23:06;4.78;;;2.87;;
48189;SDS011;33980;47.436;18.926;2022-09-17T02:25:39;4.60;;;2.90;;
48189;SDS011;33980;47.436;18.926;2022-09-17T02:28:12;4.65;;;2.60;;
48189;SDS011;33980;47.436;18.926;2022-09-17T02:30:44;5.35;;;3.25;;
48189;SDS011;33980;47.436;18.926;2022-09-17T02:33:14;4.85;;;2.65;;
48189;SDS011;33980;47.436;18.926;2022-09-17T02:35:42;4.85;;;3.08;;
48189;SDS011;33980;47.436;18.926;2022-09-17T02:38:19;4.45;;;2.65;;
48189;SDS011;33980;47.436;18.926;2022-09-17T02:40:50;5.00;;;2.45;;
48189;SDS011;33980;47.436;18.926;2022-09-17T02:43:24;3.85;;;2.45;;
48189;SDS011;33980;47.436;18.926;2022-09-17T02:45:59;5.25;;;2.92;;
48189;SDS011;33980;47.436;18.926;2022-09-17T02:48:46;4.78;;;2.90;;
48189;SDS011;33980;47.436;18.926;2022-09-17T02:51:39;3.72;;;2.35;;
48189;SDS011;33980;47.436;18.926;2022-09-17T02:54:15;4.53;;;2.42;;
48189;SDS011;33980;47.436;18.926;2022-09-17T02:56:48;4.40;;;2.50;;
48189;SDS011;33980;47.436;18.926;2022-09-17T02:59:23;4.87;;;2.87;;
48189;SDS011;33980;47.436;18.926;2022-09-17T03:04:25;4.45;;;2.17;;
48189;SDS011;33980;47.436;18.926;2022-09-17T03:06:55;5.20;;;2.40;;
48189;SDS011;33980;47.436;18.926;2022-09-17T03:09:25;5.20;;;2.85;;
48189;SDS011;33980;47.436;18.926;2022-09-17T03:11:54;4.18;;;2.78;;
48189;SDS011;33980;47.436;18.926;2022-09-17T03:14:23;3.33;;;2.12;;
48189;SDS011;33980;47.436;18.926;2022-09-17T03:16:52;3.80;;;2.50;;
48189;SDS011;33980;47.436;18.926;2022-09-17T03:19:20;3.25;;;2.22;;
48189;SDS011;33980;47.436;18.926;2022-09-17T03:21:50;5.50;;;2.30;;
48189;SDS011;33980;47.436;18.926;2022-09-17T03:24:19;4.07;;;2.17;;
48189;SDS011;33980;47.436;18.926;2022-09-17T03:26:48;4.30;;;2.28;;
48189;SDS011;33980;47.436;18.926;2022-09-17T03:29:17;3.33;;;2.17;;
48189;SDS011;33980;47.436;18.926;2022-09-17T03:31:46;7.90;;;2.60;;
48189;SDS011;33980;47.436;18.926;2022-09-17T03:34:14;5.10;;;2.67;;
48189;SDS011;33980;47.436;18.926;2022-09-17T03:36:43;4.20;;;2.20;;
48189;SDS011;33980;47.436;18.926;2022-09-17T03:39:14;4.07;;;2.55;;
48189;SDS011;33980;47.436;18.926;2022-09-17T03:41:42;3.17;;;2.08;;
48189;SDS011;33980;47.436;18.926;2022-09-17T03:44:11;6.57;;;2.03;;
48189;SDS011;33980;47.436;18.926;2022-09-17T03:46:41;3.80;;;2.20;;
48189;SDS011;33980;47.436;18.926;2022-09-17T03:49:10;3.00;;;1.90;;
48189;SDS011;33980;47.436;18.926;2022-09-17T03:51:39;2.00;;;1.80;;
48189;SDS011;33980;47.436;18.926;2022-09-17T03:54:08;3.35;;;2.00;;
48189;SDS011;33980;47.436;18.926;2022-09-17T03:56:38;3.00;;;2.08;;
48189;SDS011;33980;47.436;18.926;2022-09-17T03:59:06;1.73;;;1.33;;
48189;SDS011;33980;47.436;18.926;2022-09-17T04:01:35;2.60;;;1.75;;
48189;SDS011;33980;47.436;18.926;2022-09-17T04:04:04;2.50;;;1.83;;
48189;SDS011;33980;47.436;18.926;2022-09-17T04:06:33;3.83;;;2.22;;
48189;SDS011;33980;47.436;18.926;2022-09-17T04:09:02;3.47;;;2.33;;
48189;SDS011;33980;47.436;18.926;2022-09-17T04:11:32;3.62;;;2.45;;
48189;SDS011;33980;47.436;18.926;2022-09-17T04:14:02;2.97;;;1.65;;
48189;SDS011;33980;47.436;18.926;2022-09-17T04:16:30;3.50;;;2.08;;
48189;SDS011;33980;47.436;18.926;2022-09-17T04:18:59;5.68;;;2.17;;
48189;SDS011;33980;47.436;18.926;2022-09-17T04:21:28;3.50;;;1.98;;
48189;SDS011;33980;47.436;18.926;2022-09-17T04:23:57;3.85;;;2.35;;
48189;SDS011;33980;47.436;18.926;2022-09-17T04:26:26;2.22;;;1.48;;
48189;SDS011;33980;47.436;18.926;2022-09-17T04:28:54;2.65;;;1.60;;
48189;SDS011;33980;47.436;18.926;2022-09-17T04:31:24;2.67;;;1.90;;
48189;SDS011;33980;47.436;18.926;2022-09-17T04:33:53;2.42;;;1.70;;
48189;SDS011;33980;47.436;18.926;2022-09-17T04:36:25;3.45;;;2.20;;
48189;SDS011;33980;47.436;18.926;2022-09-17T04:38:54;2.97;;;2.00;;
48189;SDS011;33980;47.436;18.926;2022-09-17T04:41:23;2.67;;;1.80;;
48189;SDS011;33980;47.436;18.926;2022-09-17T04:43:52;2.50;;;1.83;;
48189;SDS011;33980;47.436;18.926;2022-09-17T04:46:20;3.33;;;1.90;;
48189;SDS011;33980;47.436;18.926;2022-09-17T04:48:51;3.00;;;1.92;;
48189;SDS011;33980;47.436;18.926;2022-09-17T04:51:19;2.17;;;1.85;;
48189;SDS011;33980;47.436;18.926;2022-09-17T04:53:48;3.47;;;2.10;;
48189;SDS011;33980;47.436;18.926;2022-09-17T04:56:17;3.45;;;2.10;;
48189;SDS011;33980;47.436;18.926;2022-09-17T04:58:46;4.12;;;2.45;;
48189;SDS011;33980;47.436;18.926;2022-09-17T05:01:15;2.67;;;1.73;;
48189;SDS011;33980;47.436;18.926;2022-09-17T05:03:44;3.83;;;2.28;;
48189;SDS011;33980;47.436;18.926;2022-09-17T05:06:14;3.17;;;2.28;;
48189;SDS011;33980;47.436;18.926;2022-09-17T05:08:43;5.00;;;2.42;;
48189;SDS011;33980;47.436;18.926;2022-09-17T05:11:12;1.92;;;1.58;;
48189;SDS011;33980;47.436;18.926;2022-09-17T05:13:41;2.60;;;1.98;;
48189;SDS011;33980;47.436;18.926;2022-09-17T05:16:10;3.05;;;1.75;;
48189;SDS011;33980;47.436;18.926;2022-09-17T05:18:39;2.60;;;1.95;;
48189;SDS011;33980;47.436;18.926;2022-09-17T05:21:07;3.03;;;1.75;;
48189;SDS011;33980;47.436;18.926;2022-09-17T05:23:38;3.25;;;2.10;;
48189;SDS011;33980;47.436;18.926;2022-09-17T05:26:06;3.10;;;2.00;;
48189;SDS011;33980;47.436;18.926;2022-09-17T05:28:35;3.28;;;2.10;;
48189;SDS011;33980;47.436;18.926;2022-09-17T05:31:04;2.47;;;1.75;;
48189;SDS011;33980;47.436;18.926;2022-09-17T05:33:33;2.72;;;1.92;;
48189;SDS011;33980;47.436;18.926;2022-09-17T05:36:01;2.58;;;1.60;;
48189;SDS011;33980;47.436;18.926;2022-09-17T05:38:31;3.03;;;1.70;;
48189;SDS011;33980;47.436;18.926;2022-09-17T05:41:03;3.12;;;2.10;;
48189;SDS011;33980;47.436;18.926;2022-09-17T05:43:33;3.50;;;2.17;;
48189;SDS011;33980;47.436;18.926;2022-09-17T05:46:02;5.47;;;2.42;;
48189;SDS011;33980;47.436;18.926;2022-09-17T05:48:32;4.80;;;2.25;;
48189;SDS011;33980;47.436;18.926;2022-09-17T05:51:01;4.25;;;2.40;;
48189;SDS011;33980;47.436;18.926;2022-09-17T05:53:30;3.35;;;1.87;;
48189;SDS011;33980;47.436;18.926;2022-09-17T05:55:59;3.87;;;2.28;;
48189;SDS011;33980;47.436;18.926;2022-09-17T05:58:29;3.40;;;2.10;;
48189;SDS011;33980;47.436;18.926;2022-09-17T06:00:59;3.70;;;2.30;;
48189;SDS011;33980;47.436;18.926;2022-09-17T06:03:28;3.80;;;2.42;;
48189;SDS011;33980;47.436;18.926;2022-09-17T06:05:57;3.08;;;1.75;;
48189;SDS011;33980;47.436;18.926;2022-09-17T06:08:29;3.72;;;2.12;;
48189;SDS011;33980;47.436;18.926;2022-09-17T06:10:58;4.07;;;2.50;;
48189;SDS011;33980;47.436;18.926;2022-09-17T06:13:32;5.30;;;2.00;;
48189;SDS011;33980;47.436;18.926;2022-09-17T06:16:02;2.85;;;1.83;;
48189;SDS011;33980;47.436;18.926;2022-09-17T06:18:31;3.62;;;1.95;;
48189;SDS011;33980;47.436;18.926;2022-09-17T06:21:00;6.80;;;2.22;;
48189;SDS011;33980;47.436;18.926;2022-09-17T06:23:30;4.93;;;1.80;;
48189;SDS011;33980;47.436;18.926;2022-09-17T06:26:01;2.55;;;1.73;;
48189;SDS011;33980;47.436;18.926;2022-09-17T06:28:32;3.47;;;2.00;;
48189;SDS011;33980;47.436;18.926;2022-09-17T06:31:08;2.80;;;1.80;;
48189;SDS011;33980;47.436;18.926;2022-09-17T06:33:38;2.92;;;1.50;;
48189;SDS011;33980;47.436;18.926;2022-09-17T06:36:07;3.10;;;1.77;;
48189;SDS011;33980;47.436;18.926;2022-09-17T06:38:41;3.00;;;1.98;;
48189;SDS011;33980;47.436;18.926;2022-09-17T06:41:10;2.22;;;1.60;;
48189;SDS011;33980;47.436;18.926;2022-09-17T06:43:42;3.62;;;1.77;;
48189;SDS011;33980;47.436;18.926;2022-09-17T06:46:11;1.77;;;1.40;;
48189;SDS011;33980;47.436;18.926;2022-09-17T06:48:39;2.85;;;1.73;;
48189;SDS011;33980;47.436;18.926;2022-09-17T06:51:09;4.05;;;1.95;;
48189;SDS011;33980;47.436;18.926;2022-09-17T06:53:38;5.00;;;2.00;;
48189;SDS011;33980;47.436;18.926;2022-09-17T06:56:07;3.37;;;1.80;;
48189;SDS011;33980;47.436;18.926;2022-09-17T06:58:37;2.70;;;1.85;;
48189;SDS011;33980;47.436;18.926;2022-09-17T07:01:11;2.72;;;2.05;;
48189;SDS011;33980;47.436;18.926;2022-09-17T07:03:41;3.12;;;2.12;;
48189;SDS011;33980;47.436;18.926;2022-09-17T07:06:10;3.67;;;1.83;;
48189;SDS011;33980;47.436;18.926;2022-09-17T07:08:39;3.17;;;1.80;;
48189;SDS011;33980;47.436;18.926;2022-09-17T07:11:08;3.20;;;1.73;;
48189;SDS011;33980;47.436;18.926;2022-09-17T07:13:37;3.33;;;1.83;;
48189;SDS011;33980;47.436;18.926;2022-09-17T07:16:06;2.08;;;1.37;;
48189;SDS011;33980;47.436;18.926;2022-09-17T07:18:36;6.32;;;1.67;;
48189;SDS011;33980;47.436;18.926;2022-09-17T07:21:06;2.45;;;1.55;;
48189;SDS011;33980;47.436;18.926;2022-09-17T07:23:36;3.00;;;1.77;;
48189;SDS011;33980;47.436;18.926;2022-09-17T07:26:06;2.05;;;1.48;;
48189;SDS011;33980;47.436;18.926;2022-09-17T07:28:37;4.35;;;1.70;;
48189;SDS011;33980;47.436;18.926;2022-09-17T07:31:06;2.80;;;1.62;;
48189;SDS011;33980;47.436;18.926;2022-09-17T07:33:43;2.50;;;1.70;;
48189;SDS011;33980;47.436;18.926;2022-09-17T07:36:13;4.50;;;1.83;;
48189;SDS011;33980;47.436;18.926;2022-09-17T07:38:44;2.28;;;1.60;;
48189;SDS011;33980;47.436;18.926;2022-09-17T07:41:13;2.62;;;1.80;;
48189;SDS011;33980;47.436;18.926;2022-09-17T07:43:43;2.28;;;1.40;;
48189;SDS011;33980;47.436;18.926;2022-09-17T07:46:13;3.08;;;1.87;;
48189;SDS011;33980;47.436;18.926;2022-09-17T07:48:44;2.00;;;1.70;;
48189;SDS011;33980;47.436;18.926;2022-09-17T07:51:16;2.58;;;1.55;;
48189;SDS011;33980;47.436;18.926;2022-09-17T07:53:45;3.35;;;1.65;;
48189;SDS011;33980;47.436;18.926;2022-09-17T07:56:16;2.12;;;1.58;;
48189;SDS011;33980;47.436;18.926;2022-09-17T07:58:45;2.78;;;1.42;;
48189;SDS011;33980;47.436;18.926;2022-09-17T08:01:14;2.53;;;1.45;;
48189;SDS011;33980;47.436;18.926;2022-09-17T08:03:48;1.62;;;1.42;;
48189;SDS011;33980;47.436;18.926;2022-09-17T08:06:18;3.20;;;1.70;;
48189;SDS011;33980;47.436;18.926;2022-09-17T08:08:48;1.92;;;1.40;;
48189;SDS011;33980;47.436;18.926;2022-09-17T08:11:17;2.87;;;1.83;;
48189;SDS011;33980;47.436;18.926;2022-09-17T08:14:08;6.95;;;2.85;;
48189;SDS011;33980;47.436;18.926;2022-09-17T08:16:38;4.00;;;2.00;;
48189;SDS011;33980;47.436;18.926;2022-09-17T08:19:09;3.08;;;1.95;;
48189;SDS011;33980;47.436;18.926;2022-09-17T08:21:37;3.15;;;1.98;;
48189;SDS011;33980;47.436;18.926;2022-09-17T08:24:06;3.03;;;1.67;;
48189;SDS011;33980;47.436;18.926;2022-09-17T08:26:35;2.10;;;1.60;;
48189;SDS011;33980;47.436;18.926;2022-09-17T08:29:04;2.80;;;1.70;;
48189;SDS011;33980;47.436;18.926;2022-09-17T08:31:33;1.90;;;1.30;;
48189;SDS011;33980;47.436;18.926;2022-09-17T08:34:05;1.83;;;1.50;;
48189;SDS011;33980;47.436;18.926;2022-09-17T08:36:36;2.60;;;1.48;;
48189;SDS011;33980;47.436;18.926;2022-09-17T08:39:05;2.72;;;1.75;;
48189;SDS011;33980;47.436;18.926;2022-09-17T08:41:39;1.85;;;1.23;;
48189;SDS011;33980;47.436;18.926;2022-09-17T08:44:16;2.58;;;1.58;;
48189;SDS011;33980;47.436;18.926;2022-09-17T08:46:51;1.65;;;1.27;;
48189;SDS011;33980;47.436;18.926;2022-09-17T08:49:27;2.20;;;1.40;;
48189;SDS011;33980;47.436;18.926;2022-09-17T08:54:53;2.12;;;1.45;;
48189;SDS011;33980;47.436;18.926;2022-09-17T08:57:28;7.00;;;1.37;;
48189;SDS011;33980;47.436;18.926;2022-09-17T09:00:03;1.00;;;0.95;;
48189;SDS011;33980;47.436;18.926;2022-09-17T09:02:44;3.40;;;1.70;;
48189;SDS011;33980;47.436;18.926;2022-09-17T09:05:24;2.78;;;1.62;;
48189;SDS011;33980;47.436;18.926;2022-09-17T09:07:59;2.30;;;1.50;;
48189;SDS011;33980;47.436;18.926;2022-09-17T09:10:34;2.17;;;1.27;;
48189;SDS011;33980;47.436;18.926;2022-09-17T09:13:10;2.97;;;1.50;;
48189;SDS011;33980;47.436;18.926;2022-09-17T09:15:42;1.45;;;1.33;;
48189;SDS011;33980;47.436;18.926;2022-09-17T09:18:17;2.20;;;1.48;;
48189;SDS011;33980;47.436;18.926;2022-09-17T09:20:48;3.22;;;1.60;;
48189;SDS011;33980;47.436;18.926;2022-09-17T09:23:23;2.22;;;1.50;;
48189;SDS011;33980;47.436;18.926;2022-09-17T09:26:00;2.25;;;1.48;;
48189;SDS011;33980;47.436;18.926;2022-09-17T09:28:38;1.60;;;1.37;;
48189;SDS011;33980;47.436;18.926;2022-09-17T09:31:20;2.30;;;1.67;;
48189;SDS011;33980;47.436;18.926;2022-09-17T09:34:09;1.95;;;1.12;;
48189;SDS011;33980;47.436;18.926;2022-09-17T09:36:42;5.70;;;1.95;;
48189;SDS011;33980;47.436;18.926;2022-09-17T09:39:14;2.42;;;1.42;;
48189;SDS011;33980;47.436;18.926;2022-09-17T09:41:47;3.35;;;1.70;;
48189;SDS011;33980;47.436;18.926;2022-09-17T09:44:17;2.03;;;1.48;;
48189;SDS011;33980;47.436;18.926;2022-09-17T09:46:52;3.25;;;1.55;;
48189;SDS011;33980;47.436;18.926;2022-09-17T09:49:39;2.45;;;1.45;;
48189;SDS011;33980;47.436;18.926;2022-09-17T09:52:22;2.30;;;1.45;;
48189;SDS011;33980;47.436;18.926;2022-09-17T09:55:12;2.50;;;1.40;;
48189;SDS011;33980;47.436;18.926;2022-09-17T09:57:54;1.30;;;1.20;;
48189;SDS011;33980;47.436;18.926;2022-09-17T10:00:27;3.05;;;1.50;;
48189;SDS011;33980;47.436;18.926;2022-09-17T10:03:01;3.03;;;1.73;;
48189;SDS011;33980;47.436;18.926;2022-09-17T10:05:34;2.37;;;1.30;;
48189;SDS011;33980;47.436;18.926;2022-09-17T10:08:09;2.00;;;1.50;;
48189;SDS011;33980;47.436;18.926;2022-09-17T10:10:53;3.20;;;1.48;;
48189;SDS011;33980;47.436;18.926;2022-09-17T10:13:23;2.75;;;1.10;;
48189;SDS011;33980;47.436;18.926;2022-09-17T10:15:53;2.28;;;1.15;;
48189;SDS011;33980;47.436;18.926;2022-09-17T10:18:22;0.98;;;0.95;;
48189;SDS011;33980;47.436;18.926;2022-09-17T10:20:56;1.87;;;1.30;;
48189;SDS011;33980;47.436;18.926;2022-09-17T10:23:26;1.15;;;0.95;;
48189;SDS011;33980;47.436;18.926;2022-09-17T10:25:58;2.10;;;1.45;;
48189;SDS011;33980;47.436;18.926;2022-09-17T10:28:31;3.97;;;1.40;;
48189;SDS011;33980;47.436;18.926;2022-09-17T10:31:02;0.95;;;0.88;;
48189;SDS011;33980;47.436;18.926;2022-09-17T10:33:37;2.03;;;1.20;;
48189;SDS011;33980;47.436;18.926;2022-09-17T10:36:08;0.80;;;0.80;;
48189;SDS011;33980;47.436;18.926;2022-09-17T10:38:41;1.87;;;1.10;;
48189;SDS011;33980;47.436;18.926;2022-09-17T10:41:16;7.87;;;3.05;;
48189;SDS011;33980;47.436;18.926;2022-09-17T10:43:48;1.08;;;0.98;;
48189;SDS011;33980;47.436;18.926;2022-09-17T10:46:18;3.20;;;1.15;;
48189;SDS011;33980;47.436;18.926;2022-09-17T10:48:57;1.00;;;0.90;;
48189;SDS011;33980;47.436;18.926;2022-09-17T10:51:36;1.75;;;0.90;;
48189;SDS011;33980;47.436;18.926;2022-09-17T10:54:14;1.37;;;0.90;;
48189;SDS011;33980;47.436;18.926;2022-09-17T10:56:55;2.12;;;1.20;;
48189;SDS011;33980;47.436;18.926;2022-09-17T10:59:29;2.60;;;1.52;;
48189;SDS011;33980;47.436;18.926;2022-09-17T11:02:30;3.47;;;1.70;;
48189;SDS011;33980;47.436;18.926;2022-09-17T11:05:24;1.95;;;1.10;;
48189;SDS011;33980;47.436;18.926;2022-09-17T11:08:04;2.65;;;1.30;;
48189;SDS011;33980;47.436;18.926;2022-09-17T11:10:37;2.92;;;2.65;;
48189;SDS011;33980;47.436;18.926;2022-09-17T11:13:14;1.48;;;1.00;;
48189;SDS011;33980;47.436;18.926;2022-09-17T11:15:52;1.70;;;0.75;;
48189;SDS011;33980;47.436;18.926;2022-09-17T11:23:59;1.00;;;0.90;;
48189;SDS011;33980;47.436;18.926;2022-09-17T11:26:36;2.15;;;1.30;;
48189;SDS011;33980;47.436;18.926;2022-09-17T11:29:13;2.10;;;1.25;;
48189;SDS011;33980;47.436;18.926;2022-09-17T11:31:52;1.37;;;0.95;;
48189;SDS011;33980;47.436;18.926;2022-09-17T11:34:29;1.02;;;0.82;;
48189;SDS011;33980;47.436;18.926;2022-09-17T11:37:00;1.85;;;1.10;;
48189;SDS011;33980;47.436;18.926;2022-09-17T11:39:34;2.67;;;1.12;;
48189;SDS011;33980;47.436;18.926;2022-09-17T11:42:09;3.50;;;1.12;;
48189;SDS011;33980;47.436;18.926;2022-09-17T11:44:42;1.52;;;1.10;;
48189;SDS011;33980;47.436;18.926;2022-09-17T11:47:15;1.20;;;1.10;;
48189;SDS011;33980;47.436;18.926;2022-09-17T11:49:47;1.45;;;1.10;;
48189;SDS011;33980;47.436;18.926;2022-09-17T11:52:19;1.15;;;0.90;;
48189;SDS011;33980;47.436;18.926;2022-09-17T11:57:20;1.17;;;1.08;;
48189;SDS011;33980;47.436;18.926;2022-09-17T12:02:22;1.10;;;0.98;;
48189;SDS011;33980;47.436;18.926;2022-09-17T12:04:56;0.82;;;0.82;;
48189;SDS011;33980;47.436;18.926;2022-09-17T12:07:32;2.05;;;1.10;;
48189;SDS011;33980;47.436;18.926;2022-09-17T12:10:10;1.10;;;1.00;;
48189;SDS011;33980;47.436;18.926;2022-09-17T12:12:47;1.08;;;1.00;;
48189;SDS011;33980;47.436;18.926;2022-09-17T12:15:22;5.20;;;1.60;;
48189;SDS011;33980;47.436;18.926;2022-09-17T12:17:54;1.25;;;1.10;;
48189;SDS011;33980;47.436;18.926;2022-09-17T12:20:47;1.10;;;1.00;;
48189;SDS011;33980;47.436;18.926;2022-09-17T12:23:19;2.00;;;1.40;;
48189;SDS011;33980;47.436;18.926;2022-09-17T12:25:54;1.48;;;0.90;;
48189;SDS011;33980;47.436;18.926;2022-09-17T12:28:29;0.90;;;0.90;;
48189;SDS011;33980;47.436;18.926;2022-09-17T12:31:04;1.37;;;1.10;;
48189;SDS011;33980;47.436;18.926;2022-09-17T12:33:38;0.90;;;0.90;;
48189;SDS011;33980;47.436;18.926;2022-09-17T12:36:15;1.30;;;1.05;;
48189;SDS011;33980;47.436;18.926;2022-09-17T12:39:03;0.90;;;0.90;;
48189;SDS011;33980;47.436;18.926;2022-09-17T12:41:40;1.10;;;0.85;;
48189;SDS011;33980;47.436;18.926;2022-09-17T12:44:17;1.23;;;1.00;;
48189;SDS011;33980;47.436;18.926;2022-09-17T12:47:02;1.02;;;0.93;;
48189;SDS011;33980;47.436;18.926;2022-09-17T12:49:46;1.75;;;1.62;;
48189;SDS011;33980;47.436;18.926;2022-09-17T12:52:27;2.40;;;1.12;;
48189;SDS011;33980;47.436;18.926;2022-09-17T12:55:09;2.35;;;1.12;;
48189;SDS011;33980;47.436;18.926;2022-09-17T12:57:49;1.10;;;1.00;;
48189;SDS011;33980;47.436;18.926;2022-09-17T13:00:23;1.35;;;0.98;;
48189;SDS011;33980;47.436;18.926;2022-09-17T13:02:56;1.48;;;1.20;;
48189;SDS011;33980;47.436;18.926;2022-09-17T13:05:37;1.23;;;1.12;;
48189;SDS011;33980;47.436;18.926;2022-09-17T13:11:29;0.90;;;0.90;;
48189;SDS011;33980;47.436;18.926;2022-09-17T13:14:10;1.23;;;1.10;;
48189;SDS011;33980;47.436;18.926;2022-09-17T13:16:44;3.42;;;0.90;;
48189;SDS011;33980;47.436;18.926;2022-09-17T13:19:19;0.95;;;0.90;;
48189;SDS011;33980;47.436;18.926;2022-09-17T13:21:58;1.33;;;1.23;;
48189;SDS011;33980;47.436;18.926;2022-09-17T13:24:28;1.65;;;1.33;;
48189;SDS011;33980;47.436;18.926;2022-09-17T13:26:57;3.17;;;1.52;;
48189;SDS011;33980;47.436;18.926;2022-09-17T13:29:55;1.45;;;1.10;;
48189;SDS011;33980;47.436;18.926;2022-09-17T13:32:40;1.00;;;0.90;;
48189;SDS011;33980;47.436;18.926;2022-09-17T13:38:18;2.00;;;1.12;;
48189;SDS011;33980;47.436;18.926;2022-09-17T13:40:51;1.48;;;1.02;;
48189;SDS011;33980;47.436;18.926;2022-09-17T13:43:21;1.00;;;1.00;;
48189;SDS011;33980;47.436;18.926;2022-09-17T13:46:13;1.17;;;1.08;;
48189;SDS011;33980;47.436;18.926;2022-09-17T13:48:45;2.17;;;1.10;;
48189;SDS011;33980;47.436;18.926;2022-09-17T13:54:12;3.90;;;1.37;;
48189;SDS011;33980;47.436;18.926;2022-09-17T13:56:42;1.00;;;1.00;;
48189;SDS011;33980;47.436;18.926;2022-09-17T13:59:14;1.75;;;1.40;;
48189;SDS011;33980;47.436;18.926;2022-09-17T14:01:55;1.37;;;1.25;;
48189;SDS011;33980;47.436;18.926;2022-09-17T14:04:34;1.73;;;1.17;;
48189;SDS011;33980;47.436;18.926;2022-09-17T14:07:30;4.78;;;1.10;;
48189;SDS011;33980;47.436;18.926;2022-09-17T14:10:28;0.95;;;0.90;;
48189;SDS011;33980;47.436;18.926;2022-09-17T14:15:54;3.20;;;1.30;;
48189;SDS011;33980;47.436;18.926;2022-09-17T14:18:34;1.70;;;1.20;;
48189;SDS011;33980;47.436;18.926;2022-09-17T14:21:08;1.12;;;1.00;;
48189;SDS011;33980;47.436;18.926;2022-09-17T14:23:43;1.67;;;1.05;;
48189;SDS011;33980;47.436;18.926;2022-09-17T14:26:16;1.65;;;1.33;;
48189;SDS011;33980;47.436;18.926;2022-09-17T14:28:48;1.20;;;0.98;;
48189;SDS011;33980;47.436;18.926;2022-09-17T14:31:24;1.02;;;0.95;;
48189;SDS011;33980;47.436;18.926;2022-09-17T14:33:57;2.53;;;1.45;;
48189;SDS011;33980;47.436;18.926;2022-09-17T14:36:26;2.85;;;1.00;;
48189;SDS011;33980;47.436;18.926;2022-09-17T14:38:57;1.50;;;1.10;;
48189;SDS011;33980;47.436;18.926;2022-09-17T14:41:27;3.33;;;1.20;;
48189;SDS011;33980;47.436;18.926;2022-09-17T14:44:00;1.35;;;1.20;;
48189;SDS011;33980;47.436;18.926;2022-09-17T14:46:32;1.30;;;1.20;;
48189;SDS011;33980;47.436;18.926;2022-09-17T14:49:12;1.67;;;0.90;;
48189;SDS011;33980;47.436;18.926;2022-09-17T14:51:42;1.12;;;1.02;;
48189;SDS011;33980;47.436;18.926;2022-09-17T14:54:15;1.50;;;1.12;;
48189;SDS011;33980;47.436;18.926;2022-09-17T14:56:55;2.15;;;1.12;;
48189;SDS011;33980;47.436;18.926;2022-09-17T14:59:35;1.27;;;1.05;;
48189;SDS011;33980;47.436;18.926;2022-09-17T15:08:05;1.90;;;1.00;;
48189;SDS011;33980;47.436;18.926;2022-09-17T15:10:44;1.27;;;1.08;;
48189;SDS011;33980;47.436;18.926;2022-09-17T15:13:16;2.55;;;2.05;;
48189;SDS011;33980;47.436;18.926;2022-09-17T15:15:50;2.37;;;1.20;;
48189;SDS011;33980;47.436;18.926;2022-09-17T15:18:29;1.98;;;1.00;;
48189;SDS011;33980;47.436;18.926;2022-09-17T15:21:01;1.87;;;1.10;;
48189;SDS011;33980;47.436;18.926;2022-09-17T15:23:32;1.65;;;1.00;;
48189;SDS011;33980;47.436;18.926;2022-09-17T15:26:03;4.30;;;1.20;;
48189;SDS011;33980;47.436;18.926;2022-09-17T15:28:33;1.33;;;1.23;;
48189;SDS011;33980;47.436;18.926;2022-09-17T15:31:03;1.17;;;0.90;;
48189;SDS011;33980;47.436;18.926;2022-09-17T15:33:33;1.40;;;1.05;;
48189;SDS011;33980;47.436;18.926;2022-09-17T15:36:07;1.50;;;1.12;;
48189;SDS011;33980;47.436;18.926;2022-09-17T15:38:41;1.52;;;0.98;;
48189;SDS011;33980;47.436;18.926;2022-09-17T15:41:23;1.25;;;1.00;;
48189;SDS011;33980;47.436;18.926;2022-09-17T15:44:06;1.17;;;0.95;;
48189;SDS011;33980;47.436;18.926;2022-09-17T15:47:17;0.88;;;0.80;;